createdAt,value
2022-12-16T00:00:08.855Z,-4.60
2022-12-16T00:02:36.315Z,-4.60
2022-12-16T00:05:04.067Z,-4.60
2022-12-16T00:07:31.898Z,-4.60
2022-12-16T00:09:58.842Z,-4.70
2022-12-16T00:12:25.903Z,-4.70
2022-12-16T00:14:52.950Z,-4.70
2022-12-16T00:17:22.273Z,-4.70
2022-12-16T00:19:49.736Z,-4.80
2022-12-16T00:22:17.576Z,-4.80
2022-12-16T00:24:44.625Z,-4.80
2022-12-16T00:27:11.649Z,-4.80
2022-12-16T00:29:38.579Z,-4.90
2022-12-16T00:32:06.379Z,-4.90
2022-12-16T00:34:33.458Z,-4.90
2022-12-16T00:37:00.382Z,-4.90
2022-12-16T00:39:27.348Z,-4.80
2022-12-16T00:41:54.341Z,-4.80
2022-12-16T00:44:21.878Z,-4.80
2022-12-16T00:46:48.845Z,-4.90
2022-12-16T00:49:15.735Z,-4.90
2022-12-16T00:51:42.665Z,-4.80
2022-12-16T00:54:09.686Z,-4.80
2022-12-16T00:56:36.902Z,-4.90
2022-12-16T00:59:03.801Z,-4.90
2022-12-16T01:01:30.849Z,-4.90
2022-12-16T01:03:57.994Z,-5.00
2022-12-16T01:06:25.533Z,-5.00
2022-12-16T01:08:52.425Z,-5.10
2022-12-16T01:11:21.962Z,-5.20
2022-12-16T01:13:52.485Z,-5.20
2022-12-16T01:16:23.032Z,-5.20
2022-12-16T01:18:49.942Z,-5.20
2022-12-16T01:21:16.898Z,-5.30
2022-12-16T01:23:43.800Z,-5.30
2022-12-16T01:26:16.804Z,-5.30
2022-12-16T01:28:44.449Z,-5.30
2022-12-16T01:31:12.358Z,-5.30
2022-12-16T01:33:39.644Z,-5.40
2022-12-16T01:36:09.062Z,-5.40
2022-12-16T01:38:36.900Z,-5.40
2022-12-16T01:41:04.984Z,-5.40
2022-12-16T01:43:38.325Z,-5.40
2022-12-16T01:46:10.188Z,-5.50
2022-12-16T01:49:01.792Z,-5.50
2022-12-16T01:51:39.913Z,-5.50
2022-12-16T01:54:42.404Z,-5.60
2022-12-16T01:57:16.484Z,-5.70
2022-12-16T01:59:47.216Z,-5.70
2022-12-16T02:02:14.852Z,-5.70
2022-12-16T02:05:04.292Z,-5.70
2022-12-16T02:07:31.265Z,-5.60
2022-12-16T02:09:59.981Z,-5.60
2022-12-16T02:13:02.038Z,-5.70
2022-12-16T02:15:41.781Z,-5.70
2022-12-16T02:18:46.605Z,-5.70
2022-12-16T02:21:37.676Z,-5.80
2022-12-16T02:24:54.913Z,-5.80
2022-12-16T02:27:55.944Z,-5.80
2022-12-16T02:30:43.331Z,-5.90
2022-12-16T02:33:38.529Z,-6.00
2022-12-16T02:36:35.442Z,-6.20
2022-12-16T02:39:15.387Z,-6.10
2022-12-16T02:42:10.567Z,-6.20
2022-12-16T02:45:18.438Z,-6.10
2022-12-16T02:47:46.586Z,-6.10
2022-12-16T02:50:35.185Z,-6.10
2022-12-16T02:53:03.076Z,-6.00
2022-12-16T02:56:09.269Z,-6.00
2022-12-16T02:59:23.805Z,-6.10
2022-12-16T03:02:00.916Z,-6.10
2022-12-16T03:04:48.717Z,-6.20
2022-12-16T03:07:18.887Z,-6.20
2022-12-16T03:09:47.535Z,-6.20
2022-12-16T03:12:18.557Z,-6.20
2022-12-16T03:14:49.551Z,-6.10
2022-12-16T03:17:18.842Z,-6.10
2022-12-16T03:19:54.953Z,-6.10
2022-12-16T03:22:29.406Z,-6.00
2022-12-16T03:24:56.675Z,-6.10
2022-12-16T03:27:46.194Z,-6.10
2022-12-16T03:30:36.699Z,-6.10
2022-12-16T03:33:24.621Z,-6.10
2022-12-16T03:35:58.618Z,-6.10
2022-12-16T03:38:27.967Z,-6.10
2022-12-16T03:40:56.153Z,-6.10
2022-12-16T03:43:24.379Z,-6.10
2022-12-16T03:45:55.233Z,-6.10
2022-12-16T03:48:26.401Z,-6.10
2022-12-16T03:50:53.597Z,-6.20
2022-12-16T03:53:26.205Z,-6.20
2022-12-16T03:55:56.176Z,-6.20
2022-12-16T03:58:23.064Z,-6.20
2022-12-16T04:00:50.825Z,-6.20
2022-12-16T04:03:17.848Z,-6.20
2022-12-16T04:05:46.028Z,-6.30
2022-12-16T04:08:13.001Z,-6.30
2022-12-16T04:10:58.349Z,-6.40
2022-12-16T04:13:43.935Z,-6.50
2022-12-16T04:16:35.327Z,-6.50
2022-12-16T04:19:21.965Z,-6.60
2022-12-16T04:22:08.082Z,-6.60
2022-12-16T04:24:36.069Z,-6.60
2022-12-16T04:27:21.652Z,-6.60
2022-12-16T04:30:07.710Z,-6.60
2022-12-16T04:32:53.496Z,-6.60
2022-12-16T04:35:39.155Z,-6.50
2022-12-16T04:38:24.801Z,-6.50
2022-12-16T04:41:10.290Z,-6.50
2022-12-16T04:43:56.284Z,-6.50
2022-12-16T04:46:41.908Z,-6.50
2022-12-16T04:49:28.234Z,-6.50
2022-12-16T04:52:13.844Z,-6.50
2022-12-16T04:54:59.696Z,-6.50
2022-12-16T04:57:58.859Z,-6.50
2022-12-16T05:00:44.446Z,-6.50
2022-12-16T05:03:30.720Z,-6.50
2022-12-16T05:06:16.498Z,-6.50
2022-12-16T05:09:02.391Z,-6.60
2022-12-16T05:11:47.894Z,-6.60
2022-12-16T05:14:33.192Z,-6.60
2022-12-16T05:17:18.701Z,-6.70
2022-12-16T05:20:03.993Z,-6.70
2022-12-16T05:22:49.784Z,-6.70
2022-12-16T05:25:35.400Z,-6.70
2022-12-16T05:28:20.984Z,-6.70
2022-12-16T05:31:06.521Z,-6.80
2022-12-16T05:33:52.473Z,-6.80
2022-12-16T05:36:38.120Z,-6.80
2022-12-16T05:39:23.729Z,-6.80
2022-12-16T05:42:09.957Z,-6.80
2022-12-16T05:44:55.860Z,-6.80
2022-12-16T05:47:41.665Z,-6.90
2022-12-16T05:50:28.942Z,-6.90
2022-12-16T05:53:26.434Z,-6.90
2022-12-16T05:56:12.022Z,-6.90
2022-12-16T05:58:57.399Z,-6.80
2022-12-16T06:01:43.012Z,-6.80
2022-12-16T06:04:29.961Z,-6.80
2022-12-16T06:07:15.406Z,-6.80
2022-12-16T06:10:00.781Z,-6.80
2022-12-16T06:12:47.491Z,-6.80
2022-12-16T06:15:33.236Z,-6.80
2022-12-16T06:18:18.808Z,-6.90
2022-12-16T06:21:04.137Z,-6.90
2022-12-16T06:23:50.293Z,-6.90
2022-12-16T06:26:35.742Z,-7.00
2022-12-16T06:29:21.180Z,-6.90
2022-12-16T06:32:07.140Z,-7.00
2022-12-16T06:34:53.423Z,-7.00
2022-12-16T06:37:39.088Z,-7.00
2022-12-16T06:40:25.143Z,-7.00
2022-12-16T06:43:11.416Z,-7.10
2022-12-16T06:45:57.087Z,-7.10
2022-12-16T06:48:42.641Z,-7.10
2022-12-16T06:51:28.264Z,-7.10
2022-12-16T06:54:13.795Z,-7.10
2022-12-16T06:56:59.593Z,-7.10
2022-12-16T06:59:45.044Z,-7.20
2022-12-16T07:02:32.659Z,-7.20
2022-12-16T07:05:18.599Z,-7.10
2022-12-16T07:08:11.363Z,-7.20
2022-12-16T07:11:04.877Z,-7.30
2022-12-16T07:14:01.736Z,-7.30
2022-12-16T07:16:47.375Z,-7.40
2022-12-16T07:19:34.011Z,-7.40
2022-12-16T07:22:20.083Z,-7.30
2022-12-16T07:25:05.731Z,-7.40
2022-12-16T07:27:51.062Z,-7.40
2022-12-16T07:30:36.540Z,-7.40
2022-12-16T07:33:22.639Z,-7.40
2022-12-16T07:36:08.065Z,-7.40
2022-12-16T07:38:53.351Z,-7.30
2022-12-16T07:41:38.858Z,-7.30
2022-12-16T07:44:24.564Z,-7.20
2022-12-16T07:47:10.391Z,-7.30
2022-12-16T07:49:56.342Z,-7.30
2022-12-16T07:52:41.903Z,-7.30
2022-12-16T07:55:28.013Z,-7.40
2022-12-16T07:58:13.589Z,-7.40
2022-12-16T08:01:03.856Z,-7.30
2022-12-16T08:03:55.166Z,-7.40
2022-12-16T08:06:42.271Z,-7.40
2022-12-16T08:09:27.871Z,-7.30
2022-12-16T08:12:13.974Z,-7.30
2022-12-16T08:14:59.961Z,-7.20
2022-12-16T08:17:46.005Z,-7.20
2022-12-16T08:20:31.687Z,-7.10
2022-12-16T08:23:17.416Z,-6.90
2022-12-16T08:26:03.141Z,-6.80
2022-12-16T08:28:48.783Z,-6.90
2022-12-16T08:31:34.712Z,-7.00
2022-12-16T08:34:19.985Z,-7.00
2022-12-16T08:37:05.605Z,-7.00
2022-12-16T08:40:10.635Z,-7.10
2022-12-16T08:42:56.980Z,-7.00
2022-12-16T08:45:43.547Z,-6.90
2022-12-16T08:48:29.425Z,-6.90
2022-12-16T08:51:14.966Z,-6.80
2022-12-16T08:54:00.863Z,-6.70
2022-12-16T08:56:46.284Z,-6.60
2022-12-16T08:59:31.902Z,-6.50
2022-12-16T09:02:17.735Z,-6.40
2022-12-16T09:05:03.900Z,-6.30
2022-12-16T09:07:49.379Z,-6.20
2022-12-16T09:10:39.788Z,-6.10
2022-12-16T09:13:32.274Z,-6.00
2022-12-16T09:16:19.941Z,-5.80
2022-12-16T09:19:06.044Z,-5.70
2022-12-16T09:21:51.883Z,-5.60
2022-12-16T09:24:37.550Z,-5.40
2022-12-16T09:27:23.133Z,-5.30
2022-12-16T09:30:08.588Z,-5.00
2022-12-16T09:32:54.362Z,-4.70
2022-12-16T09:35:39.827Z,-4.40
2022-12-16T09:38:25.314Z,-4.10
2022-12-16T09:41:11.891Z,-3.70
2022-12-16T09:44:21.606Z,-3.30
2022-12-16T09:47:43.235Z,-3.00
2022-12-16T09:50:42.403Z,-2.50
2022-12-16T09:53:33.410Z,-2.20
2022-12-16T09:56:24.682Z,-1.90
2022-12-16T09:59:19.431Z,-1.70
2022-12-16T10:02:05.755Z,-1.50
2022-12-16T10:04:51.220Z,-1.30
2022-12-16T10:07:50.450Z,-1.00
2022-12-16T10:11:15.360Z,-0.60
2022-12-16T10:14:28.328Z,-0.30
2022-12-16T10:17:31.739Z,0.10
2022-12-16T10:20:51.622Z,0.30
2022-12-16T10:24:29.700Z,0.40
2022-12-16T10:27:32.623Z,0.60
2022-12-16T10:30:20.354Z,1.00
2022-12-16T10:33:08.706Z,1.30
2022-12-16T10:36:24.031Z,1.60
2022-12-16T10:39:19.116Z,1.80
2022-12-16T10:42:09.433Z,1.90
2022-12-16T10:45:11.052Z,2.00
2022-12-16T10:47:56.659Z,2.20
2022-12-16T10:50:42.297Z,2.30
2022-12-16T10:53:43.688Z,2.40
2022-12-16T10:56:40.999Z,2.60
2022-12-16T10:59:27.423Z,2.80
2022-12-16T11:02:39.644Z,3.20
2022-12-16T11:05:49.183Z,3.40
2022-12-16T11:08:55.532Z,3.60
2022-12-16T11:11:48.699Z,3.70
2022-12-16T11:15:12.469Z,3.90
2022-12-16T11:17:55.930Z,4.10
2022-12-16T11:20:44.054Z,4.20
2022-12-16T11:23:40.442Z,4.30
2022-12-16T11:26:38.473Z,4.30
2022-12-16T11:29:36.941Z,4.50
2022-12-16T11:32:41.218Z,4.50
2022-12-16T11:35:36.715Z,4.30
2022-12-16T11:38:24.841Z,4.30
2022-12-16T11:41:11.042Z,4.40
2022-12-16T11:44:00.212Z,4.30
2022-12-16T11:46:47.572Z,4.30
2022-12-16T11:49:49.628Z,4.30
2022-12-16T11:52:40.290Z,4.40
2022-12-16T11:59:04.924Z,4.50
2022-12-16T12:02:05.366Z,4.70
2022-12-16T12:04:51.102Z,4.60
2022-12-16T12:07:57.619Z,4.40
2022-12-16T12:11:22.983Z,4.20
2022-12-16T12:14:24.458Z,4.00
2022-12-16T12:17:50.904Z,4.00
2022-12-16T12:21:05.477Z,4.00
2022-12-16T12:24:46.918Z,4.30
2022-12-16T12:27:47.990Z,4.30
2022-12-16T12:30:37.380Z,4.50
2022-12-16T12:33:50.852Z,4.60
2022-12-16T12:36:43.243Z,4.60
2022-12-16T12:39:41.641Z,4.30
2022-12-16T12:42:56.371Z,4.30
2022-12-16T12:45:48.506Z,4.30
2022-12-16T12:48:47.600Z,4.30
2022-12-16T12:52:01.788Z,4.30
2022-12-16T12:55:19.528Z,4.10
2022-12-16T12:58:06.999Z,3.80
2022-12-16T13:01:00.903Z,3.80
2022-12-16T13:04:07.805Z,3.60
2022-12-16T13:06:56.237Z,3.50
2022-12-16T13:09:44.877Z,3.30
2022-12-16T13:12:30.494Z,3.50
2022-12-16T13:15:38.932Z,3.70
2022-12-16T13:18:24.534Z,3.70
2022-12-16T13:21:12.789Z,3.70
2022-12-16T13:24:01.793Z,3.70
2022-12-16T13:26:51.080Z,3.70
2022-12-16T13:29:44.557Z,3.80
2022-12-16T13:32:42.945Z,3.80
2022-12-16T13:35:28.588Z,3.80
2022-12-16T13:38:22.232Z,3.70
2022-12-16T13:41:20.496Z,3.50
2022-12-16T13:44:09.732Z,3.20
2022-12-16T13:47:13.557Z,3.20
2022-12-16T13:50:09.644Z,3.10
2022-12-16T13:53:15.245Z,2.80
2022-12-16T13:56:17.769Z,2.70
2022-12-16T13:59:18.229Z,2.50
2022-12-16T14:02:16.285Z,2.40
2022-12-16T14:05:12.434Z,2.20
2022-12-16T14:07:59.840Z,2.10
2022-12-16T14:10:48.685Z,1.90
2022-12-16T14:14:00.445Z,1.90
2022-12-16T14:17:12.349Z,1.80
2022-12-16T14:20:22.231Z,1.90
2022-12-16T14:23:54.502Z,1.90
2022-12-16T14:26:32.962Z,2.00
2022-12-16T14:29:21.028Z,2.10
2022-12-16T14:32:08.125Z,2.20
2022-12-16T14:34:55.959Z,2.30
2022-12-16T14:37:57.412Z,2.40
2022-12-16T14:40:49.478Z,2.40
2022-12-16T14:43:45.545Z,2.40
2022-12-16T14:46:48.693Z,2.50
2022-12-16T14:49:46.860Z,2.50
2022-12-16T14:52:53.804Z,2.50
2022-12-16T14:55:52.467Z,2.40
2022-12-16T14:58:41.739Z,2.20
2022-12-16T15:01:34.272Z,1.90
2022-12-16T15:04:44.347Z,1.80
2022-12-16T15:07:32.864Z,1.70
2022-12-16T15:10:19.553Z,1.60
2022-12-16T15:13:07.120Z,1.60
2022-12-16T15:16:05.313Z,1.60
2022-12-16T15:19:05.197Z,1.50
2022-12-16T15:21:54.078Z,1.50
2022-12-16T15:24:44.529Z,1.40
2022-12-16T15:27:55.763Z,1.30
2022-12-16T15:31:04.238Z,1.10
2022-12-16T15:33:54.652Z,1.00
2022-12-16T15:36:52.608Z,0.90
2022-12-16T15:39:54.943Z,0.90
2022-12-16T15:42:46.235Z,0.80
2022-12-16T15:45:45.386Z,0.70
2022-12-16T15:48:53.114Z,0.70
2022-12-16T15:51:49.803Z,0.60
2022-12-16T15:54:39.554Z,0.60
2022-12-16T15:57:53.269Z,0.50
2022-12-16T16:00:50.042Z,0.40
2022-12-16T16:03:46.072Z,0.40
2022-12-16T16:06:40.277Z,0.30
2022-12-16T16:09:45.772Z,0.20
2022-12-16T16:12:34.620Z,0.10
2022-12-16T16:15:20.805Z,-0.10
2022-12-16T16:18:11.598Z,-0.20
2022-12-16T16:20:57.037Z,-0.20
2022-12-16T16:23:54.039Z,-0.20
2022-12-16T16:26:43.690Z,-0.20
2022-12-16T16:29:30.203Z,-0.30
2022-12-16T16:32:15.767Z,-0.30
2022-12-16T16:35:02.898Z,-0.20
2022-12-16T16:37:48.504Z,-0.30
2022-12-16T16:40:55.311Z,-0.30
2022-12-16T16:43:41.144Z,-0.40
2022-12-16T16:46:40.648Z,-0.50
2022-12-16T16:49:31.428Z,-0.50
2022-12-16T16:52:16.998Z,-0.60
2022-12-16T16:55:02.577Z,-0.70
2022-12-16T16:57:53.386Z,-0.70
2022-12-16T17:00:39.313Z,-0.70
2022-12-16T17:03:25.037Z,-0.70
2022-12-16T17:06:10.451Z,-0.70
2022-12-16T17:08:56.169Z,-0.80
2022-12-16T17:11:42.282Z,-0.80
2022-12-16T17:14:34.548Z,-0.90
2022-12-16T17:17:20.805Z,-0.90
2022-12-16T17:20:07.245Z,-1.00
2022-12-16T17:22:52.576Z,-1.10
2022-12-16T17:25:39.353Z,-1.20
2022-12-16T17:28:25.877Z,-1.20
2022-12-16T17:31:12.225Z,-1.30
2022-12-16T17:33:57.795Z,-1.40
2022-12-16T17:37:03.486Z,-1.40
2022-12-16T17:39:49.119Z,-1.50
2022-12-16T17:42:35.125Z,-1.60
2022-12-16T17:45:20.721Z,-1.60
2022-12-16T17:48:06.504Z,-1.70
2022-12-16T17:50:51.909Z,-1.70
2022-12-16T17:53:37.575Z,-1.60
2022-12-16T17:56:24.714Z,-1.60
2022-12-16T17:59:11.330Z,-1.70
2022-12-16T18:01:56.849Z,-1.70
2022-12-16T18:04:42.772Z,-1.70
2022-12-16T18:07:28.186Z,-1.80
2022-12-16T18:10:13.716Z,-1.80
2022-12-16T18:13:00.133Z,-1.90
2022-12-16T18:15:46.051Z,-2.00
2022-12-16T18:18:31.809Z,-2.00
2022-12-16T18:21:31.598Z,-2.00
2022-12-16T18:24:17.179Z,-2.10
2022-12-16T18:27:03.027Z,-2.10
2022-12-16T18:29:48.765Z,-2.10
2022-12-16T18:32:35.471Z,-2.10
2022-12-16T18:35:21.651Z,-2.10
2022-12-16T18:38:10.030Z,-2.10
2022-12-16T18:40:57.614Z,-2.20
2022-12-16T18:43:57.245Z,-2.30
2022-12-16T18:46:43.051Z,-2.30
2022-12-16T18:49:34.793Z,-2.20
2022-12-16T18:52:20.564Z,-2.30
2022-12-16T18:55:06.260Z,-2.30
2022-12-16T18:57:52.207Z,-2.30
2022-12-16T19:00:38.033Z,-2.20
2022-12-16T19:03:23.791Z,-2.30
2022-12-16T19:06:21.707Z,-2.30
2022-12-16T19:09:07.136Z,-2.30
2022-12-16T19:11:53.089Z,-2.30
2022-12-16T19:14:38.636Z,-2.30
2022-12-16T19:17:24.209Z,-2.30
2022-12-16T19:20:10.441Z,-2.40
2022-12-16T19:22:56.230Z,-2.50
2022-12-16T19:25:42.579Z,-2.60
2022-12-16T19:28:34.983Z,-2.80
2022-12-16T19:31:21.260Z,-2.90
2022-12-16T19:34:07.143Z,-3.00
2022-12-16T19:36:53.282Z,-3.10
2022-12-16T19:39:39.443Z,-3.20
2022-12-16T19:42:25.174Z,-3.40
2022-12-16T19:45:21.982Z,-3.50
2022-12-16T19:48:07.815Z,-3.50
2022-12-16T19:50:56.412Z,-3.50
2022-12-16T19:53:42.457Z,-3.60
2022-12-16T19:56:28.136Z,-3.60
2022-12-16T19:59:13.597Z,-3.60
2022-12-16T20:01:59.551Z,-3.50
2022-12-16T20:04:45.329Z,-3.50
2022-12-16T20:07:30.812Z,-3.50
2022-12-16T20:10:16.513Z,-3.50
2022-12-16T20:13:02.254Z,-3.40
2022-12-16T20:15:47.590Z,-3.40
2022-12-16T20:18:33.293Z,-3.40
2022-12-16T20:21:23.780Z,-3.40
2022-12-16T20:24:09.379Z,-3.50
2022-12-16T20:26:59.779Z,-3.60
2022-12-16T20:29:45.932Z,-3.70
2022-12-16T20:32:31.508Z,-3.80
2022-12-16T20:35:17.074Z,-3.70
2022-12-16T20:38:02.449Z,-3.60
2022-12-16T20:40:48.486Z,-3.60
2022-12-16T20:43:34.201Z,-3.50
2022-12-16T20:46:19.640Z,-3.50
2022-12-16T20:49:06.481Z,-3.40
2022-12-16T20:51:52.330Z,-3.30
2022-12-16T20:54:37.952Z,-3.20
2022-12-16T20:57:23.500Z,-3.20
2022-12-16T21:00:08.838Z,-3.10
2022-12-16T21:02:56.025Z,-3.10
2022-12-16T21:05:41.852Z,-3.20
2022-12-16T21:08:27.535Z,-3.20
2022-12-16T21:11:16.385Z,-3.30
2022-12-16T21:14:02.403Z,-2.30
2022-12-16T21:16:48.043Z,-0.90
2022-12-16T21:19:34.659Z,-1.10
2022-12-16T21:22:20.365Z,-1.60
2022-12-16T21:25:06.767Z,-2.00
2022-12-16T21:27:52.317Z,-2.50
2022-12-16T21:30:38.576Z,-2.80
2022-12-16T21:33:24.192Z,-3.10
2022-12-16T21:36:11.622Z,-3.20
2022-12-16T21:38:57.282Z,-3.20
2022-12-16T21:41:43.060Z,-3.40
2022-12-16T21:44:28.426Z,-3.50
2022-12-16T21:47:13.836Z,-3.60
2022-12-16T21:50:00.997Z,-3.60
2022-12-16T21:52:46.873Z,-3.70
2022-12-16T21:55:32.614Z,-3.80
2022-12-16T21:58:18.390Z,-3.80
2022-12-16T22:01:13.907Z,-3.90
2022-12-16T22:03:59.842Z,-3.90
2022-12-16T22:06:49.113Z,-4.00
2022-12-16T22:09:35.433Z,-4.00
2022-12-16T22:12:21.177Z,-4.10
2022-12-16T22:15:06.911Z,-4.10
2022-12-16T22:20:59.186Z,-4.20
2022-12-16T22:23:48.584Z,-4.20
2022-12-16T22:26:34.048Z,-4.20
2022-12-16T22:29:19.771Z,-4.20
2022-12-16T22:32:05.550Z,-4.20
2022-12-16T22:34:50.966Z,-4.20
2022-12-16T22:37:37.986Z,-4.30
2022-12-16T22:40:24.602Z,-4.30
2022-12-16T22:43:10.426Z,-4.30
2022-12-16T22:45:57.714Z,-4.40
2022-12-16T22:48:45.472Z,-4.30
2022-12-16T22:51:32.746Z,-4.30
2022-12-16T22:54:18.947Z,-4.40
2022-12-16T22:57:04.796Z,-4.40
2022-12-16T22:59:50.432Z,-4.50
2022-12-16T23:02:35.772Z,-4.40
2022-12-16T23:08:29.024Z,-4.40
2022-12-16T23:11:19.405Z,-4.50
2022-12-16T23:14:05.452Z,-4.50
2022-12-16T23:16:51.092Z,-4.60
2022-12-16T23:19:38.847Z,-4.70
2022-12-16T23:22:24.503Z,-4.80
2022-12-16T23:25:10.040Z,-4.80
2022-12-16T23:27:55.864Z,-4.90
2022-12-16T23:30:46.292Z,-4.90
2022-12-16T23:32:30.620Z,-4.20
2022-12-16T23:32:31.314Z,-4.40
2022-12-16T23:33:31.932Z,-4.90
2022-12-16T23:36:17.418Z,-4.80
2022-12-16T23:39:03.265Z,-4.80
2022-12-16T23:41:48.609Z,-4.80
2022-12-16T23:44:34.296Z,-4.80
2022-12-16T23:47:20.239Z,-4.80
2022-12-16T23:50:06.446Z,-4.80
2022-12-16T23:52:53.764Z,-4.80
2022-12-16T23:55:42.343Z,-4.90
2022-12-16T23:58:28.805Z,-4.90
